Time;durP1;ratioP1;P1;durP2;ratioP2;P2;SDS_P1;SDS_P2;PMS_P1;PMS_P2;Temp;Humidity;BMP_temperature;BMP_pressure;BME280_temperature;BME280_humidity;BME280_pressure;Samples;Min_cycle;Max_cycle;Signal;HPM_P1;HPM_P2
2022/07/28 00:01:37;;;;;;;2.78;2.58;;;;;;;22.79;51.05;93510.31;4962083;28;20055;-94
2022/07/28 00:04:03;;;;;;;2.70;2.30;;;;;;;22.78;51.12;93519.84;5001891;28;20042;-92
2022/07/28 00:06:32;;;;;;;2.55;2.35;;;;;;;22.78;51.04;93519.84;4913845;29;20051;-92
2022/07/28 00:08:58;;;;;;;2.20;2.00;;;;;;;22.77;50.94;93519.09;4939234;29;20047;-92
2022/07/28 00:11:24;;;;;;;2.70;2.47;;;;;;;22.77;51.03;93516.34;4919359;29;20084;-92
2022/07/28 00:13:51;;;;;;;2.95;2.60;;;;;;;22.78;50.97;93506.06;4898196;29;20098;-92
2022/07/28 00:16:18;;;;;;;2.45;2.25;;;;;;;22.79;51.19;93511.03;4885834;29;20493;-91
2022/07/28 00:18:51;;;;;;;2.50;2.30;;;;;;;22.77;51.07;93510.06;4891190;29;20044;-92
2022/07/28 00:21:20;;;;;;;2.40;2.20;;;;;;;22.76;51.02;93517.59;4887813;29;20069;-92
2022/07/28 00:23:49;;;;;;;2.95;2.38;;;;;;;22.76;50.95;93514.84;4877453;29;20041;-93
2022/07/28 00:26:14;;;;;;;3.15;2.22;;;;;;;22.76;51.20;93514.84;4885352;29;20045;-92
2022/07/28 00:28:40;;;;;;;2.50;2.20;;;;;;;22.76;50.95;93511.34;4891756;29;20041;-93
2022/07/28 00:31:05;;;;;;;2.58;2.25;;;;;;;22.77;51.13;93512.81;4894165;29;20037;-93
2022/07/28 00:33:34;;;;;;;1.92;1.83;;;;;;;22.77;51.10;93518.34;4882008;29;20065;-93
2022/07/28 00:36:03;;;;;;;2.60;2.40;;;;;;;22.76;51.15;93506.56;5137333;23;20028;-93
2022/07/28 00:38:30;;;;;;;2.92;2.63;;;;;;;22.76;50.86;93508.59;5016777;28;20044;-92
2022/07/28 00:41:10;;;;;;;3.17;2.40;;;;;;;22.76;50.75;93508.59;5041025;28;20025;-92
2022/07/28 00:43:44;;;;;;;2.20;2.00;;;;;;;22.75;51.11;93518.88;5043829;28;20575;-92
2022/07/28 00:46:10;;;;;;;2.67;2.30;;;;;;;22.75;51.11;93505.09;5013012;28;20089;-92
2022/07/28 00:48:38;;;;;;;1.95;1.85;;;;;;;22.75;51.04;93509.88;5085582;22;20024;-93
2022/07/28 00:51:10;;;;;;;2.65;2.25;;;;;;;22.75;51.03;93512.63;5045657;28;20133;-94
2022/07/28 00:53:41;;;;;;;2.50;2.30;;;;;;;22.75;50.98;93499.59;5075693;28;20043;-92
2022/07/28 00:56:10;;;;;;;3.28;2.58;;;;;;;22.75;50.99;93507.09;5002947;28;20025;-92
2022/07/28 00:58:49;;;;;;;2.40;2.10;;;;;;;22.75;51.14;93507.09;5058004;28;20032;-92
2022/07/28 01:01:20;;;;;;;2.70;2.33;;;;;;;22.73;51.19;93499.41;5010837;28;20048;-93
2022/07/28 01:03:46;;;;;;;;;;;;;;;22.77;51.13;93502.56;5068159;23;20034;-92
2022/07/28 01:06:33;;;;;;;2.55;2.30;;;;;;;22.74;51.29;93509.13;5039652;28;20015;-92
2022/07/28 01:09:17;;;;;;;3.65;2.60;;;;;;;22.74;51.23;93500.13;5042786;28;20052;-93
2022/07/28 01:12:07;;;;;;;1.83;1.70;;;;;;;22.74;51.25;93500.13;5071117;22;20060;-92
2022/07/28 01:14:46;;;;;;;2.10;1.93;;;;;;;22.73;51.43;93493.91;5074078;28;20485;-92
2022/07/28 01:17:32;;;;;;;2.08;1.80;;;;;;;22.74;50.97;93495.34;5033844;23;20048;-93
2022/07/28 01:20:20;;;;;;;2.60;2.28;;;;;;;22.73;51.23;93493.91;5052240;28;20060;-92
2022/07/28 01:22:49;;;;;;;2.15;1.95;;;;;;;22.73;51.12;93495.91;5056622;28;20040;-92
2022/07/28 01:25:20;;;;;;;2.13;1.92;;;;;;;22.74;51.10;93494.59;5081725;28;20037;-92
2022/07/28 01:28:01;;;;;;;;;;;;;;;22.75;50.90;93488.56;5061448;28;20092;-92
2022/07/28 01:30:37;;;;;;;2.80;1.92;;;;;;;22.74;51.02;93489.09;5055814;28;19927;-92
2022/07/28 01:33:17;;;;;;;2.08;1.88;;;;;;;22.73;51.13;93484.88;5027776;28;20048;-93
2022/07/28 01:35:45;;;;;;;2.67;2.10;;;;;;;22.72;51.17;93489.66;5032665;28;20059;-93
2022/07/28 01:38:11;;;;;;;2.50;2.17;;;;;;;22.73;50.93;93482.88;5066883;28;20443;-93
2022/07/28 01:40:45;;;;;;;2.58;2.38;;;;;;;22.72;51.07;93475.13;5049407;28;20036;-93
2022/07/28 01:43:17;;;;;;;1.90;1.70;;;;;;;22.71;50.98;93482.66;5001574;28;20114;-92
2022/07/28 01:45:47;;;;;;;2.13;1.92;;;;;;;22.73;51.03;93482.13;4981523;28;20046;-92
2022/07/28 01:48:14;;;;;;;2.20;2.00;;;;;;;22.71;51.14;93479.16;5032076;28;20037;-93
2022/07/28 01:50:42;;;;;;;2.50;2.30;;;;;;;22.71;51.20;93474.41;5011317;28;20063;-92
2022/07/28 01:53:11;;;;;;;2.53;2.13;;;;;;;22.72;51.22;93472.38;4986959;28;20038;-92
2022/07/28 01:55:37;;;;;;;2.63;1.67;;;;;;;22.72;51.04;93475.13;4940740;28;20034;-92
2022/07/28 01:58:03;;;;;;;2.20;2.00;;;;;;;22.71;50.93;93466.13;4964168;28;20050;-92
2022/07/28 02:00:29;;;;;;;2.42;2.22;;;;;;;22.71;50.93;93455.09;4926353;29;20043;-91
2022/07/28 02:02:57;;;;;;;2.08;1.80;;;;;;;22.72;51.26;93462.09;4915116;29;20299;-93
2022/07/28 02:05:44;;;;;;;2.42;2.08;;;;;;;22.72;51.16;93469.63;4924202;29;20107;-94
2022/07/28 02:08:11;;;;;;;2.15;1.95;;;;;;;22.73;50.86;93465.59;4919802;29;20039;-92
2022/07/28 02:13:32;;;;;;;3.13;2.38;;;;;;;22.72;51.06;93455.84;4927132;28;20218;-93
2022/07/28 02:16:02;;;;;;;2.28;1.95;;;;;;;22.72;50.98;93455.84;4950257;28;20529;-93
2022/07/28 02:18:29;;;;;;;2.10;1.90;;;;;;;22.70;51.12;93461.91;4966470;28;20035;-92
2022/07/28 02:21:17;;;;;;;1.85;1.70;;;;;;;22.72;50.87;93453.84;4963922;29;20058;-93
2022/07/28 02:23:46;;;;;;;2.10;1.90;;;;;;;22.71;50.93;93454.38;4940176;29;20038;-92
2022/07/28 02:26:14;;;;;;;2.28;1.73;;;;;;;22.69;50.89;93449.38;4945613;29;20511;-93
2022/07/28 02:28:42;;;;;;;2.25;1.90;;;;;;;22.71;50.66;93448.84;4927501;23;20471;-93
2022/07/28 02:31:42;;;;;;;1.98;1.80;;;;;;;22.70;51.05;93448.13;5013695;28;20541;-93
2022/07/28 02:34:08;;;;;;;2.00;1.80;;;;;;;22.71;50.98;93441.31;4993281;28;20129;-92
2022/07/28 02:36:48;;;;;;;2.58;2.33;;;;;;;22.70;51.11;93437.09;4963533;28;20054;-93
2022/07/28 02:39:17;;;;;;;1.80;1.70;;;;;;;22.70;51.00;93448.13;5007299;23;20045;-93
2022/07/28 02:42:05;;;;;;;2.17;1.70;;;;;;;22.71;51.08;93443.34;4985990;28;20335;-93
2022/07/28 02:44:36;;;;;;;2.00;1.77;;;;;;;22.69;50.83;93446.63;4973409;28;20054;-93
2022/07/28 02:47:04;;;;;;;2.85;2.03;;;;;;;22.68;51.14;93447.91;5087772;22;20033;-93
2022/07/28 02:49:31;;;;;;;2.38;1.77;;;;;;;22.70;50.98;93452.88;4997711;28;20050;-93
2022/07/28 02:52:00;;;;;;;2.13;1.90;;;;;;;22.69;50.99;93443.88;4982947;28;20018;-93
2022/07/28 02:54:27;;;;;;;2.13;1.90;;;;;;;22.70;50.86;93450.13;4957509;28;20042;-93
2022/07/28 02:57:09;;;;;;;2.33;1.75;;;;;;;22.69;50.99;93454.91;4957839;28;20042;-93
2022/07/28 02:59:34;;;;;;;1.70;1.58;;;;;;;22.70;50.98;93444.63;5012241;23;20025;-91
2022/07/28 03:02:01;;;;;;;1.58;1.48;;;;;;;22.69;51.13;93448.66;5046007;28;20048;-93
2022/07/28 03:07:12;;;;;;;2.88;2.00;;;;;;;22.69;50.94;93456.91;5048604;28;20102;-93
2022/07/28 03:09:41;;;;;;;2.38;2.00;;;;;;;22.68;51.00;93464.44;5061138;28;20136;-94
2022/07/28 03:12:09;;;;;;;2.60;1.88;;;;;;;22.71;50.83;93466.13;5001579;28;20045;-94
2022/07/28 03:14:48;;;;;;;2.22;1.67;;;;;;;22.69;50.99;93471.44;4982430;28;20041;-92
2022/07/28 03:17:16;;;;;;;1.60;1.50;;;;;;;22.69;51.12;93470.69;4953268;28;20019;-92
2022/07/28 03:19:43;;;;;;;2.20;2.00;;;;;;;22.67;50.99;93462.97;4917115;29;20124;-91
2022/07/28 03:22:10;;;;;;;2.80;1.92;;;;;;;22.68;51.01;93475.47;4903374;29;20055;-91
2022/07/28 03:24:47;;;;;;;2.05;1.73;;;;;;;22.69;51.12;93471.44;4932821;29;20062;-94
2022/07/28 03:27:29;;;;;;;1.50;1.40;;;;;;;22.68;51.12;93472.72;4942885;29;20047;-93
2022/07/28 03:32:21;;;;;;;2.13;1.45;;;;;;;22.68;51.01;93483.75;5074431;22;20044;-93
2022/07/28 03:34:47;;;;;;;1.90;1.60;;;;;;;22.69;50.92;93478.97;5052348;28;20047;-93
2022/07/28 03:37:13;;;;;;;2.00;1.70;;;;;;;22.69;50.93;93484.47;4993405;28;20046;-93
2022/07/28 03:39:46;;;;;;;1.48;1.30;;;;;;;22.68;51.01;93475.47;4984202;28;20037;-93
2022/07/28 03:42:17;;;;;;;3.15;1.80;;;;;;;22.67;50.96;93484.28;4995142;28;20088;-93
2022/07/28 03:44:44;;;;;;;2.40;1.70;;;;;;;22.70;50.72;93486.69;5019989;28;20109;-93
2022/07/28 03:47:10;;;;;;;2.42;1.52;;;;;;;22.70;50.92;93491.47;4958858;28;20073;-93
2022/07/28 03:50:07;;;;;;;2.00;1.45;;;;;;;22.69;50.79;93485.22;4967501;28;20034;-94
2022/07/28 03:52:37;;;;;;;1.90;1.50;;;;;;;22.71;50.83;93488.19;4936611;28;20162;-93
2022/07/28 03:55:02;;;;;;;1.63;1.48;;;;;;;22.71;50.76;93490.19;4964578;28;20057;-94
2022/07/28 03:57:29;;;;;;;9.57;1.80;;;;;;;22.70;50.77;93485.97;4947775;28;20058;-95
2022/07/28 03:59:55;;;;;;;3.38;2.05;;;;;;;22.70;50.49;93483.94;4931181;29;20157;-94
2022/07/28 04:02:22;;;;;;;3.97;1.85;;;;;;;22.69;50.84;93495.50;4918138;29;20024;-94
2022/07/28 04:04:54;;;;;;;3.20;2.03;;;;;;;22.71;50.88;93492.94;4919182;29;20044;-95
2022/07/28 04:07:29;;;;;;;2.80;1.70;;;;;;;22.79;49.96;93491.00;4835955;29;20044;-93
2022/07/28 04:10:02;;;;;;;4.35;2.03;;;;;;;22.77;49.19;93485.25;4836427;29;20068;-94
2022/07/28 04:12:48;;;;;;;4.47;2.30;;;;;;;22.29;49.10;93478.38;4826493;29;20530;-93
2022/07/28 04:15:18;;;;;;;2.95;2.40;;;;;;;22.23;49.25;93482.00;4842932;29;20065;-94
2022/07/28 04:17:47;;;;;;;3.05;2.60;;;;;;;22.23;49.26;93473.75;4816202;29;20042;-93
2022/07/28 04:20:41;;;;;;;7.10;2.75;;;;;;;22.21;48.57;93470.78;4820013;29;20033;-95
2022/07/28 04:23:19;;;;;;;4.45;2.70;;;;;;;22.15;48.54;93469.41;4825729;29;20042;-94
2022/07/28 04:26:28;;;;;;;;;;;;;;;;;;;;;
2022/07/28 04:29:02;;;;;;;9.93;5.35;;;;;;;22.06;47.97;93469.88;4753929;29;20115;-95
2022/07/28 04:31:30;;;;;;;8.15;4.40;;;;;;;22.07;48.25;93468.59;4768194;30;20055;-94
2022/07/28 04:34:14;;;;;;;9.68;5.50;;;;;;;22.09;47.65;93472.28;4737583;29;20140;-94
2022/07/28 04:36:43;;;;;;;7.95;5.53;;;;;;;21.98;47.72;93472.50;4765760;29;20124;-94
2022/07/28 04:39:32;;;;;;;10.85;6.18;;;;;;;21.92;47.45;93462.88;4804412;29;20051;-94
2022/07/28 04:41:58;;;;;;;35.75;23.83;;;;;;;22.01;47.64;93467.97;4789731;29;20074;-88
2022/07/28 04:44:25;;;;;;;53.92;35.60;;;;;;;22.03;47.43;93462.69;4778725;29;20039;-89
2022/07/28 04:46:50;;;;;;;49.22;23.02;;;;;;;21.96;47.02;93464.03;4793934;29;20054;-88
2022/07/28 04:49:18;;;;;;;37.38;14.90;;;;;;;22.01;46.83;93462.47;4792499;29;20428;-91
2022/07/28 04:51:48;;;;;;;50.53;21.92;;;;;;;21.93;46.71;93470.59;4802842;29;20047;-91
2022/07/28 04:54:14;;;;;;;64.20;29.13;;;;;;;21.99;45.71;93470.50;4813289;29;20047;-90
2022/07/28 04:56:51;;;;;;;45.63;21.15;;;;;;;21.95;45.29;93459.81;4850153;29;20095;-94
2022/07/28 04:59:17;;;;;;;86.88;38.63;;;;;;;21.91;45.14;93464.88;4905088;29;20029;-92
2022/07/28 05:01:44;;;;;;;61.90;26.58;;;;;;;21.64;45.20;93466.97;4892887;29;20041;-90
2022/07/28 05:04:19;;;;;;;61.67;26.13;;;;;;;21.54;45.75;93463.16;4892662;29;20564;-92
2022/07/28 05:06:44;;;;;;;44.65;16.17;;;;;;;21.49;46.17;93470.22;4901424;29;20056;-95
2022/07/28 05:09:11;;;;;;;36.58;13.85;;;;;;;21.45;45.96;93467.06;4942959;28;20042;-96
2022/07/28 05:11:36;;;;;;;22.33;9.23;;;;;;;21.63;45.17;93478.50;4978450;28;20125;-94
2022/07/28 05:14:33;;;;;;;20.60;8.10;;;;;;;21.57;45.75;93475.84;4978438;28;20042;-92
2022/07/28 05:17:02;;;;;;;22.67;9.13;;;;;;;21.46;45.58;93476.03;4954962;28;20074;-91
2022/07/28 05:19:28;;;;;;;25.52;9.77;;;;;;;21.27;45.77;93483.66;4931307;28;20090;-91
2022/07/28 05:21:54;;;;;;;68.72;30.65;;;;;;;21.35;45.95;93488.00;4910699;28;20445;-93
2022/07/28 05:24:19;;;;;;;49.35;18.02;;;;;;;21.36;45.85;93486.00;4966005;28;20034;-91
2022/07/28 05:26:45;;;;;;;37.08;12.73;;;;;;;21.24;46.48;93479.22;4948980;28;20035;-92
2022/07/28 05:29:11;;;;;;;24.88;10.43;;;;;;;21.29;46.29;93483.88;4958968;28;20039;-91
2022/07/28 05:31:38;;;;;;;27.48;14.30;;;;;;;21.38;46.09;93484.22;4959779;28;20043;-91
2022/07/28 05:34:04;;;;;;;33.00;13.70;;;;;;;21.15;46.06;93464.59;4953343;28;20567;-91
2022/07/28 05:36:31;;;;;;;28.17;12.25;;;;;;;21.21;46.20;93472.78;4943459;28;20046;-91
2022/07/28 05:38:56;;;;;;;31.30;11.27;;;;;;;21.08;46.45;93476.22;4941334;28;20605;-92
2022/07/28 05:41:23;;;;;;;32.78;15.75;;;;;;;21.02;46.67;93481.06;4946578;28;20043;-91
2022/07/28 05:43:48;;;;;;;30.38;16.80;;;;;;;21.04;46.94;93478.53;4939998;28;20103;-92
2022/07/28 05:46:16;;;;;;;17.88;11.57;;;;;;;21.04;46.74;93484.03;4942516;28;20466;-93
2022/07/28 05:48:42;;;;;;;17.52;9.30;;;;;;;21.23;46.44;93480.47;4942556;28;20039;-93
2022/07/28 05:51:08;;;;;;;16.67;7.20;;;;;;;21.12;46.74;93484.91;4954655;28;20062;-93
2022/07/28 05:53:34;;;;;;;46.03;24.58;;;;;;;21.20;46.32;93482.31;4978618;28;20029;-92
2022/07/28 05:56:09;;;;;;;51.70;24.20;;;;;;;21.20;46.83;93485.06;5017602;28;20041;-94
2022/07/28 05:58:37;;;;;;;51.25;18.00;;;;;;;21.02;47.20;93485.81;4996474;28;20041;-94
2022/07/28 06:03:36;;;;;;;29.60;11.65;;;;;;;21.00;47.11;93491.84;5062548;28;20044;-93
2022/07/28 06:06:05;;;;;;;22.55;9.25;;;;;;;21.01;47.26;93492.59;5007852;28;20047;-92
2022/07/28 06:08:33;;;;;;;17.83;8.30;;;;;;;21.13;47.40;93488.38;5007465;28;20042;-94
2022/07/28 06:11:08;;;;;;;53.10;44.00;;;;;;;21.01;47.82;93492.59;5023413;28;20045;-92
2022/07/28 06:13:34;;;;;;;86.82;67.68;;;;;;;21.07;47.25;93491.22;5026922;28;20044;-91
2022/07/28 06:16:08;;;;;;;16.95;7.70;;;;;;;21.14;47.30;93495.38;5006276;28;20021;-93
2022/07/28 06:18:35;;;;;;;10.45;5.68;;;;;;;21.05;47.50;93490.28;5046755;28;20041;-94
2022/07/28 06:21:02;;;;;;;8.95;5.35;;;;;;;21.03;47.56;93498.28;5009778;28;20059;-93
2022/07/28 06:23:29;;;;;;;11.48;5.25;;;;;;;21.04;47.60;93491.53;5008348;28;20052;-92
2022/07/28 06:25:54;;;;;;;32.63;13.43;;;;;;;21.10;47.65;93495.69;5055520;28;20068;-92
2022/07/28 06:28:21;;;;;;;71.97;17.45;;;;;;;21.13;47.74;93491.13;5002309;28;20183;-90
2022/07/28 06:31:02;;;;;;;43.45;11.43;;;;;;;21.03;47.93;93490.78;4985695;28;20092;-93
2022/07/28 06:33:46;;;;;;;;;;;;;;;;;;;;;
2022/07/28 06:36:25;;;;;;;33.75;11.88;;;;;;;21.02;48.03;93500.31;5001149;28;20466;-95
2022/07/28 06:39:32;;;;;;;19.77;8.85;;;;;;;20.96;48.38;93490.69;5016040;28;20041;-94
2022/07/28 06:42:57;;;;;;;21.52;7.40;;;;;;;21.14;48.31;93489.88;4980785;28;20125;-95
2022/07/28 06:46:03;;;;;;;12.20;6.65;;;;;;;21.07;48.63;93487.75;4891006;29;20074;-93
2022/07/28 06:48:31;;;;;;;17.38;6.93;;;;;;;21.03;48.69;93490.06;4820036;29;20057;-93
2022/07/28 06:51:03;;;;;;;13.35;6.78;;;;;;;21.15;48.58;93491.34;4815692;29;20079;-91
2022/07/28 06:53:29;;;;;;;;;;;;;;;21.25;48.26;93491.69;4827063;29;20038;-93
2022/07/28 06:55:55;;;;;;;62.90;33.42;;;;;;;21.08;49.02;93484.47;4791635;29;19925;-92
2022/07/28 06:58:21;;;;;;;46.30;22.65;;;;;;;21.09;48.97;93491.44;4793161;29;20046;-93
2022/07/28 07:00:49;;;;;;;71.53;25.67;;;;;;;21.14;48.85;93476.88;4807578;29;20533;-93
2022/07/28 07:03:15;;;;;;;56.67;22.15;;;;;;;21.19;49.01;93476.03;4848309;29;20122;-93
2022/07/28 07:05:51;;;;;;;46.25;16.52;;;;;;;21.15;49.73;93478.34;4815198;29;20598;-93
2022/07/28 07:08:43;;;;;;;41.90;13.05;;;;;;;21.13;49.64;93475.38;4815334;29;20098;-93
2022/07/28 07:11:09;;;;;;;20.17;11.35;;;;;;;21.19;49.54;93476.03;4800220;29;20043;-92
2022/07/28 07:13:35;;;;;;;18.50;8.52;;;;;;;21.13;49.99;93471.91;4822968;29;20130;-95
2022/07/28 07:19:39;;;;;;;41.05;17.35;;;;;;;21.15;50.01;93480.34;5042588;22;20466;-94
2022/07/28 07:22:05;;;;;;;23.55;10.75;;;;;;;21.20;49.81;93469.28;5000112;28;20486;-93
2022/07/28 07:24:36;;;;;;;25.05;11.27;;;;;;;21.18;50.33;93473.81;4997876;28;20037;-93
2022/07/28 07:27:17;;;;;;;21.27;11.82;;;;;;;21.20;50.19;93469.28;4987659;28;20052;-92
2022/07/28 07:29:53;;;;;;;18.88;11.18;;;;;;;21.27;50.47;93461.66;4981124;28;20057;-94
2022/07/28 07:32:20;;;;;;;33.17;12.32;;;;;;;21.36;50.13;93458.50;4977244;28;20037;-95
2022/07/28 07:34:56;;;;;;;20.25;9.90;;;;;;;21.34;50.66;93469.28;4992586;28;20053;-94
2022/07/28 07:37:24;;;;;;;22.75;12.70;;;;;;;21.36;50.91;93459.25;5035700;28;20041;-94
2022/07/28 07:39:50;;;;;;;20.10;9.60;;;;;;;21.46;50.83;93462.28;4936192;28;20114;-89
2022/07/28 07:42:16;;;;;;;29.27;9.77;;;;;;;21.39;51.25;93460.94;4907406;29;20640;-90
2022/07/28 07:44:41;;;;;;;20.30;9.27;;;;;;;21.42;51.32;93464.66;4945340;28;20047;-90
2022/07/28 07:47:09;;;;;;;30.05;15.32;;;;;;;21.54;50.90;93457.66;4951764;28;20049;-92
2022/07/28 07:49:38;;;;;;;92.63;43.40;;;;;;;21.59;50.98;93461.56;4951962;29;20191;-95
2022/07/28 07:52:03;;;;;;;40.88;17.63;;;;;;;21.62;50.60;93450.25;4956060;28;20535;-91
2022/07/28 07:54:29;;;;;;;47.50;27.17;;;;;;;21.52;51.16;93455.44;4957636;28;20052;-92
2022/07/28 07:57:01;;;;;;;83.80;39.78;;;;;;;21.50;51.07;93454.47;4913260;29;20127;-92
2022/07/28 07:59:26;;;;;;;64.13;26.00;;;;;;;21.60;51.31;93449.28;4918880;29;20046;-90
2022/07/28 08:01:54;;;;;;;70.35;27.17;;;;;;;21.58;51.79;93446.31;4928490;29;20130;-91
2022/07/28 08:04:20;;;;;;;50.28;22.23;;;;;;;21.50;51.90;93449.72;4921287;29;20674;-91
2022/07/28 08:06:47;;;;;;;43.72;18.15;;;;;;;21.59;51.64;93445.06;4930048;29;20051;-95
2022/07/28 08:09:12;;;;;;;25.63;12.30;;;;;;;21.69;51.66;93446.84;4919249;29;20050;-94
2022/07/28 08:11:47;;;;;;;45.03;23.85;;;;;;;21.67;51.58;93445.88;4938915;28;20093;-96
2022/07/28 08:14:12;;;;;;;45.35;15.95;;;;;;;21.53;52.04;93453.41;4961253;28;20038;-91
2022/07/28 08:16:38;;;;;;;36.67;14.68;;;;;;;21.55;52.06;93465.38;4960573;28;20124;-89
2022/07/28 08:19:03;;;;;;;35.15;16.10;;;;;;;21.67;51.62;93454.88;4963884;28;20061;-90
2022/07/28 08:21:28;;;;;;;25.40;12.65;;;;;;;21.59;51.91;93458.81;4999783;28;20076;-91
2022/07/28 08:23:57;;;;;;;21.17;10.98;;;;;;;21.58;52.05;93462.84;5015672;28;20045;-93
2022/07/28 08:26:23;;;;;;;25.58;11.98;;;;;;;21.54;52.01;93465.91;5045018;28;20031;-91
2022/07/28 08:28:49;;;;;;;25.98;13.30;;;;;;;21.51;52.29;93451.19;5020951;28;20029;-90
2022/07/28 08:31:20;;;;;;;39.25;19.25;;;;;;;21.57;52.11;93456.59;5041313;28;20078;-90
2022/07/28 08:33:47;;;;;;;36.17;18.20;;;;;;;21.66;52.01;93447.88;5019086;28;20044;-91
2022/07/28 08:36:15;;;;;;;28.55;11.82;;;;;;;21.74;52.14;93450.75;5037242;28;20040;-92
2022/07/28 08:38:41;;;;;;;23.52;11.30;;;;;;;21.74;52.39;93445.25;5025282;28;20041;-92
2022/07/28 08:41:08;;;;;;;23.05;12.40;;;;;;;21.69;52.64;93449.56;5014651;28;20049;-94
2022/07/28 08:43:37;;;;;;;29.65;12.55;;;;;;;21.73;52.27;93446.50;5032145;28;20108;-93
2022/07/28 08:46:05;;;;;;;64.25;33.83;;;;;;;21.79;52.75;93447.16;5003408;28;20045;-94
2022/07/28 08:48:31;;;;;;;50.47;23.27;;;;;;;21.74;52.74;93434.97;4999840;28;20419;-93
2022/07/28 08:51:08;;;;;;;37.88;17.23;;;;;;;21.77;52.90;93442.16;5013205;28;20074;-94
2022/07/28 08:53:36;;;;;;;32.25;15.95;;;;;;;21.73;53.70;93441.75;5008982;28;20041;-94
2022/07/28 08:56:04;;;;;;;53.47;21.65;;;;;;;21.75;53.46;93439.22;5037444;28;20060;-93
2022/07/28 08:58:38;;;;;;;69.07;29.20;;;;;;;21.77;53.87;93435.94;5023558;28;20048;-94
2022/07/28 09:01:04;;;;;;;73.13;32.90;;;;;;;21.78;53.73;93438.16;5044103;28;20497;-91
2022/07/28 09:03:29;;;;;;;48.80;23.30;;;;;;;21.82;53.82;93433.06;5058952;28;20040;-92
2022/07/28 09:05:57;;;;;;;54.40;24.65;;;;;;;21.82;54.12;93435.06;5060068;28;20067;-92
2022/07/28 09:08:23;;;;;;;39.13;19.30;;;;;;;21.80;54.08;93435.59;5038042;28;20150;-91
2022/07/28 09:10:48;;;;;;;37.35;18.30;;;;;;;21.91;54.01;93426.34;5035604;28;20083;-91
2022/07/28 09:13:15;;;;;;;61.90;29.08;;;;;;;21.97;53.85;93435.25;5033789;28;20048;-93
2022/07/28 09:15:43;;;;;;;50.08;16.85;;;;;;;22.01;54.10;93443.19;5043599;28;20028;-93
2022/07/28 09:18:08;;;;;;;20.20;11.90;;;;;;;21.99;53.84;93429.19;5042535;28;20032;-93
2022/07/28 09:20:35;;;;;;;23.20;10.63;;;;;;;22.00;53.96;93427.94;5017868;28;20052;-91
2022/07/28 09:23:02;;;;;;;19.10;12.52;;;;;;;22.06;53.89;93431.34;5002530;28;20054;-92
2022/07/28 09:25:28;;;;;;;15.98;9.88;;;;;;;22.07;54.00;93425.28;5024522;28;20041;-91
2022/07/28 09:28:09;;;;;;;15.25;9.48;;;;;;;22.05;54.10;93418.84;5019141;28;20092;-91
2022/07/28 09:30:35;;;;;;;;;;;;;;;22.04;53.84;93420.13;4978065;28;20053;-90
2022/07/28 09:33:14;;;;;;;32.58;19.05;;;;;;;22.00;54.45;93427.94;5027287;28;19928;-94
2022/07/28 09:35:56;;;;;;;33.70;14.40;;;;;;;22.05;54.60;93418.84;5032855;28;20431;-94
2022/07/28 09:38:24;;;;;;;25.15;11.65;;;;;;;22.01;54.96;93410.16;4992187;28;20097;-96
2022/07/28 09:40:57;;;;;;;28.10;13.25;;;;;;;22.08;54.91;93413.00;4958499;28;20049;-94
2022/07/28 09:43:42;;;;;;;19.17;9.18;;;;;;;22.08;54.65;93417.78;5032536;28;20033;-93
2022/07/28 09:46:14;;;;;;;24.95;10.43;;;;;;;22.11;54.79;93405.69;5005650;28;20037;-94
2022/07/28 09:48:48;;;;;;;30.67;11.27;;;;;;;22.13;54.56;93409.38;5016989;28;20081;-92
2022/07/28 09:51:17;;;;;;;23.80;12.13;;;;;;;22.15;54.83;93415.09;5029644;28;20041;-94
2022/07/28 09:53:42;;;;;;;24.45;12.55;;;;;;;22.18;54.64;93418.78;5022199;28;20036;-94
2022/07/28 09:56:10;;;;;;;33.35;14.02;;;;;;;22.17;54.85;93404.28;4976543;28;20043;-94
2022/07/28 09:58:53;;;;;;;88.13;25.05;;;;;;;22.22;54.62;93416.44;4969952;28;20049;-93
2022/07/28 10:01:20;;;;;;;125.57;33.97;;;;;;;22.26;54.36;93405.84;5011529;28;20045;-93
2022/07/28 10:03:54;;;;;;;84.80;25.52;;;;;;;22.28;53.89;93408.06;4974849;28;20053;-92
2022/07/28 10:06:27;;;;;;;66.93;20.63;;;;;;;22.29;53.77;93409.53;4996194;28;20109;-93
2022/07/28 10:08:55;;;;;;;57.63;19.80;;;;;;;22.30;53.69;93413.78;5014291;28;20045;-94
2022/07/28 10:11:26;;;;;;;56.78;19.13;;;;;;;22.30;53.20;93403.47;5002788;28;20048;-93
2022/07/28 10:13:53;;;;;;;43.95;15.10;;;;;;;22.27;52.83;93401.06;4992110;28;20103;-92
2022/07/28 10:16:20;;;;;;;33.83;13.82;;;;;;;22.31;52.81;93396.69;4993955;28;20045;-91
2022/07/28 10:18:46;;;;;;;26.63;12.32;;;;;;;22.33;52.42;93399.66;4991385;28;20046;-89
2022/07/28 10:21:13;;;;;;;31.38;12.75;;;;;;;22.29;52.53;93396.50;5005962;28;20064;-91
2022/07/28 10:23:39;;;;;;;17.85;9.07;;;;;;;22.29;52.34;93406.78;4977785;28;20040;-92
2022/07/28 10:26:10;;;;;;;18.25;7.20;;;;;;;22.29;51.43;93404.03;5028185;28;20041;-92
2022/07/28 10:28:37;;;;;;;15.77;6.75;;;;;;;22.31;51.09;93398.69;5033290;28;20502;-90
2022/07/28 10:31:03;;;;;;;12.25;6.35;;;;;;;22.30;50.80;93395.22;5035167;28;20754;-92
2022/07/28 10:33:31;;;;;;;18.20;7.78;;;;;;;22.34;50.73;93386.63;5050107;28;20128;-91
2022/07/28 10:35:56;;;;;;;57.03;36.35;;;;;;;22.31;50.66;93398.69;5044111;28;20098;-91
2022/07/28 10:38:23;;;;;;;39.10;26.40;;;;;;;22.33;50.77;93390.66;5032050;28;20044;-91
2022/07/28 10:40:49;;;;;;;37.42;19.05;;;;;;;22.35;50.87;93388.84;5022434;28;20073;-90
2022/07/28 10:43:14;;;;;;;30.05;13.27;;;;;;;22.33;50.99;93385.88;5056503;28;20024;-91
2022/07/28 10:45:40;;;;;;;14.25;9.70;;;;;;;22.33;51.18;93385.88;5068622;28;20028;-90
2022/07/28 10:48:06;;;;;;;13.07;7.70;;;;;;;22.36;51.37;93386.81;5054068;28;20051;-90
2022/07/28 10:50:32;;;;;;;13.45;9.35;;;;;;;22.40;51.13;93385.22;5052967;28;20032;-91
2022/07/28 10:52:57;;;;;;;18.95;9.95;;;;;;;22.35;51.39;93380.56;5058430;28;20123;-91
2022/07/28 10:55:41;;;;;;;18.20;10.02;;;;;;;22.39;51.33;93392.00;5072058;28;20090;-93
2022/07/28 10:58:19;;;;;;;12.88;8.63;;;;;;;22.42;51.40;93388.16;5048802;28;20043;-91
2022/07/28 11:00:46;;;;;;;31.50;17.75;;;;;;;22.41;51.26;93381.19;5068691;28;20044;-92
2022/07/28 11:03:36;;;;;;;32.22;19.23;;;;;;;22.42;51.33;93381.94;5046348;28;20032;-91
2022/07/28 11:06:28;;;;;;;39.90;23.40;;;;;;;22.43;51.48;93381.38;5052897;28;20099;-90
2022/07/28 11:08:54;;;;;;;67.72;30.63;;;;;;;22.46;51.30;93376.81;5092326;28;20055;-91
2022/07/28 11:11:48;;;;;;;68.28;34.90;;;;;;;22.44;51.77;93390.41;5057437;28;20032;-91
2022/07/28 11:14:28;;;;;;;55.38;28.35;;;;;;;22.43;51.55;93375.13;5008256;28;20163;-91
2022/07/28 11:17:02;;;;;;;65.60;33.40;;;;;;;22.51;51.69;93375.94;5000914;28;20037;-93
2022/07/28 11:19:28;;;;;;;42.72;21.38;;;;;;;22.49;51.52;93378.50;5019153;28;20041;-90
2022/07/28 11:22:28;;;;;;;58.72;24.55;;;;;;;22.48;51.52;93377.75;4973324;28;20120;-91
2022/07/28 11:24:56;;;;;;;49.63;23.15;;;;;;;22.51;51.20;93381.47;4939197;28;20505;-90
2022/07/28 11:27:46;;;;;;;39.10;21.55;;;;;;;22.51;51.53;93382.19;4954113;28;20082;-90
2022/07/28 11:30:17;;;;;;;150.00;36.97;;;;;;;22.52;51.93;93378.13;4951400;28;20050;-92
2022/07/28 11:32:48;;;;;;;264.83;52.33;;;;;;;22.60;51.61;93378.22;4965619;28;20100;-92
2022/07/28 11:35:14;;;;;;;321.15;57.25;;;;;;;22.54;51.64;93377.59;4969675;28;20065;-93
2022/07/28 11:38:01;;;;;;;318.23;58.15;;;;;;;22.58;51.56;93375.25;4933689;28;20548;-91
2022/07/28 11:40:37;;;;;;;207.68;45.58;;;;;;;22.57;51.54;93377.28;4970309;28;20069;-93
2022/07/28 11:43:21;;;;;;;172.35;39.90;;;;;;;22.58;51.44;93378.75;4933246;28;20042;-92
2022/07/28 11:45:47;;;;;;;114.88;31.25;;;;;;;22.56;51.52;93366.78;4949490;28;20051;-92
2022/07/28 11:48:20;;;;;;;89.03;24.00;;;;;;;22.57;51.43;93363.50;4934273;28;20042;-92
2022/07/28 11:51:08;;;;;;;59.10;17.15;;;;;;;22.60;51.54;93355.44;4944040;28;20133;-89
2022/07/28 11:53:33;;;;;;;69.30;29.02;;;;;;;22.62;51.55;93364.63;4938303;28;20038;-89
2022/07/28 11:56:00;;;;;;;80.55;28.98;;;;;;;22.60;51.37;93364.44;4984594;28;20181;-90
2022/07/28 11:58:25;;;;;;;61.95;23.88;;;;;;;22.61;51.51;93365.19;4969173;28;20047;-90
2022/07/28 12:01:17;;;;;;;203.75;51.25;;;;;;;22.63;51.90;93365.38;5031990;28;20032;-88